createdAt,value
2022-10-03T00:01:36.591Z,10.80
2022-10-03T00:04:21.650Z,11.33
2022-10-03T00:07:33.827Z,11.13
2022-10-03T00:10:14.283Z,10.47
2022-10-03T00:13:05.732Z,10.00
2022-10-03T00:15:47.441Z,10.30
2022-10-03T00:18:41.912Z,10.30
2022-10-03T00:21:44.755Z,9.87
2022-10-03T00:24:31.587Z,9.53
2022-10-03T00:27:49.002Z,10.33
2022-10-03T00:30:24.660Z,9.93
2022-10-03T00:33:22.346Z,10.03
2022-10-03T00:36:07.178Z,11.23
2022-10-03T00:39:02.547Z,11.63
2022-10-03T00:41:38.237Z,10.73
2022-10-03T00:44:13.990Z,10.63
2022-10-03T00:46:49.745Z,9.70
2022-10-03T00:49:34.994Z,10.67
2022-10-03T00:52:04.607Z,10.33
2022-10-03T00:54:45.358Z,10.63
2022-10-03T00:57:34.047Z,10.50
2022-10-03T01:00:07.641Z,9.93
2022-10-03T01:02:47.742Z,10.57
2022-10-03T01:05:35.981Z,10.37
2022-10-03T01:08:48.818Z,9.97
2022-10-03T01:11:30.358Z,9.83
2022-10-03T01:14:09.891Z,10.83
2022-10-03T01:16:57.296Z,10.67
2022-10-03T01:20:00.175Z,9.63
2022-10-03T01:23:01.594Z,9.57
2022-10-03T01:25:47.131Z,10.00
2022-10-03T01:28:41.519Z,9.90
2022-10-03T01:31:13.897Z,10.07
2022-10-03T01:33:46.728Z,10.97
2022-10-03T01:36:25.334Z,10.60
2022-10-03T01:39:11.839Z,10.63
2022-10-03T01:42:12.291Z,10.93
2022-10-03T01:45:01.722Z,10.07
2022-10-03T01:47:51.602Z,10.50
2022-10-03T01:50:38.615Z,9.90
2022-10-03T01:53:18.983Z,11.10
2022-10-03T01:55:59.224Z,10.77
2022-10-03T01:58:36.388Z,10.63
2022-10-03T02:01:28.155Z,10.70
2022-10-03T02:04:04.409Z,10.87
2022-10-03T02:06:50.226Z,10.37
2022-10-03T02:09:28.386Z,10.17
2022-10-03T02:12:07.666Z,10.70
2022-10-03T02:14:46.992Z,9.23
2022-10-03T02:17:49.239Z,9.80
2022-10-03T02:20:29.331Z,9.50
2022-10-03T02:23:00.763Z,9.30
2022-10-03T02:25:36.173Z,8.87
2022-10-03T02:28:47.759Z,9.03
2022-10-03T02:31:48.074Z,9.40
2022-10-03T02:34:46.755Z,9.67
2022-10-03T02:37:37.151Z,8.93
2022-10-03T02:40:10.378Z,9.30
2022-10-03T02:42:59.573Z,8.57
2022-10-03T02:46:03.338Z,9.23
2022-10-03T02:49:04.400Z,8.70
2022-10-03T02:51:59.748Z,8.57
2022-10-03T02:54:44.409Z,8.27
2022-10-03T02:57:16.559Z,8.43
2022-10-03T03:00:07.711Z,8.30
2022-10-03T03:02:42.529Z,8.63
2022-10-03T03:05:22.645Z,8.00
2022-10-03T03:08:26.346Z,8.50
2022-10-03T03:11:12.495Z,8.40
2022-10-03T03:14:16.642Z,8.00
2022-10-03T03:16:55.874Z,8.80
2022-10-03T03:19:44.019Z,7.67
2022-10-03T03:22:32.974Z,8.67
2022-10-03T03:25:21.617Z,8.10
2022-10-03T03:28:07.745Z,7.70
2022-10-03T03:30:45.957Z,7.77
2022-10-03T03:33:33.515Z,8.03
2022-10-03T03:36:17.410Z,7.90
2022-10-03T03:38:53.886Z,7.93
2022-10-03T03:41:31.119Z,8.10
2022-10-03T03:44:12.599Z,6.70
2022-10-03T03:47:30.338Z,7.63
2022-10-03T03:50:15.017Z,7.80
2022-10-03T03:53:04.661Z,7.40
2022-10-03T03:56:04.351Z,8.10
2022-10-03T03:58:38.059Z,7.37
2022-10-03T04:01:16.731Z,7.53
2022-10-03T04:04:05.151Z,7.17
2022-10-03T04:06:56.603Z,7.70
2022-10-03T04:09:39.055Z,8.13
2022-10-03T04:12:09.498Z,7.60
2022-10-03T04:15:07.393Z,7.57
2022-10-03T04:18:25.320Z,7.00
2022-10-03T04:21:07.138Z,7.47
2022-10-03T04:24:22.082Z,8.00
2022-10-03T04:27:28.946Z,7.50
2022-10-03T04:30:16.705Z,7.50
2022-10-03T04:33:25.517Z,7.70
2022-10-03T04:36:27.513Z,8.00
2022-10-03T04:39:20.943Z,7.00
2022-10-03T04:42:06.273Z,7.73
2022-10-03T04:45:04.775Z,7.60
2022-10-03T04:47:56.153Z,7.57
2022-10-03T04:50:57.473Z,7.03
2022-10-03T04:53:33.980Z,6.93
2022-10-03T04:56:12.833Z,6.80
2022-10-03T04:58:48.910Z,7.50
2022-10-03T05:01:34.608Z,8.27
2022-10-03T05:04:12.602Z,7.27
2022-10-03T05:06:57.111Z,8.03
2022-10-03T05:09:38.777Z,6.80
2022-10-03T05:12:45.561Z,7.30
2022-10-03T05:15:14.969Z,7.13
2022-10-03T05:18:00.142Z,7.60
2022-10-03T05:20:47.195Z,7.90
2022-10-03T05:23:32.422Z,7.97
2022-10-03T05:26:43.684Z,7.80
2022-10-03T05:29:31.481Z,7.37
2022-10-03T05:32:10.958Z,7.30
2022-10-03T05:34:49.660Z,7.37
2022-10-03T05:37:43.400Z,7.30
2022-10-03T05:40:24.613Z,7.50
2022-10-03T05:42:51.380Z,7.33
2022-10-03T05:45:49.864Z,7.57
2022-10-03T05:48:38.042Z,7.03
2022-10-03T05:51:13.498Z,7.23
2022-10-03T05:54:37.360Z,7.00
2022-10-03T05:57:31.748Z,7.43
2022-10-03T06:00:26.273Z,7.10
2022-10-03T06:03:11.024Z,7.83
2022-10-03T06:05:46.667Z,8.27
2022-10-03T06:08:26.715Z,8.60
2022-10-03T06:11:02.080Z,8.50
2022-10-03T06:13:56.032Z,8.70
2022-10-03T06:16:31.709Z,8.80
2022-10-03T06:19:25.226Z,8.53
2022-10-03T06:22:29.865Z,9.10
2022-10-03T06:25:17.911Z,9.83
2022-10-03T06:28:11.003Z,10.07
2022-10-03T06:30:40.261Z,10.27
2022-10-03T06:33:28.050Z,10.57
2022-10-03T06:36:30.707Z,11.17
2022-10-03T06:39:23.839Z,11.37
2022-10-03T06:42:04.218Z,11.70
2022-10-03T06:44:56.589Z,12.07
2022-10-03T06:47:43.390Z,13.57
2022-10-03T06:50:38.680Z,11.87
2022-10-03T06:53:11.861Z,13.37
2022-10-03T06:56:07.967Z,13.97
2022-10-03T06:59:05.617Z,14.37
2022-10-03T07:01:53.939Z,16.50
2022-10-03T07:04:26.180Z,15.30
2022-10-03T07:07:30.513Z,14.90
2022-10-03T07:10:19.001Z,15.80
2022-10-03T07:12:52.570Z,15.40
2022-10-03T07:16:14.334Z,15.87
2022-10-03T07:19:04.489Z,16.87
2022-10-03T07:21:47.250Z,15.87
2022-10-03T07:24:32.034Z,16.00
2022-10-03T07:27:17.831Z,14.23
2022-10-03T07:30:16.857Z,14.33
2022-10-03T07:33:04.965Z,14.87
2022-10-03T07:36:03.600Z,12.47
2022-10-03T07:38:49.823Z,13.83
2022-10-03T07:41:22.163Z,13.83
2022-10-03T07:44:03.989Z,12.57
2022-10-03T07:46:54.812Z,11.97
2022-10-03T07:49:48.604Z,12.33
2022-10-03T07:52:32.563Z,11.87
2022-10-03T07:55:19.561Z,11.00
2022-10-03T07:57:48.678Z,11.43
2022-10-03T08:00:24.515Z,10.80
2022-10-03T08:03:15.913Z,12.07
2022-10-03T08:05:49.657Z,11.97
2022-10-03T08:08:34.609Z,12.77
2022-10-03T08:11:01.167Z,12.00
2022-10-03T08:14:01.279Z,12.97
2022-10-03T08:16:43.189Z,11.80
2022-10-03T08:19:19.192Z,12.47
2022-10-03T08:22:15.655Z,12.23
2022-10-03T08:25:09.090Z,11.77
2022-10-03T08:27:47.112Z,12.13
2022-10-03T08:30:21.437Z,12.13
2022-10-03T08:33:25.440Z,12.10
2022-10-03T08:36:13.979Z,12.50
2022-10-03T08:39:02.312Z,11.80
2022-10-03T08:41:52.659Z,12.07
2022-10-03T08:44:30.235Z,11.53
2022-10-03T08:47:02.413Z,11.83
2022-10-03T08:49:45.452Z,11.30
2022-10-03T08:52:32.986Z,11.40
2022-10-03T08:55:27.289Z,11.93
2022-10-03T08:58:25.683Z,12.77
2022-10-03T09:01:36.388Z,11.80
2022-10-03T09:04:37.065Z,13.30
2022-10-03T09:07:20.344Z,12.67
2022-10-03T09:10:07.670Z,11.97
2022-10-03T09:13:02.533Z,11.23
2022-10-03T09:16:07.828Z,11.47
2022-10-03T09:19:19.133Z,11.53
2022-10-03T09:21:48.634Z,11.97
2022-10-03T09:24:53.007Z,11.03
2022-10-03T09:27:32.333Z,12.23
2022-10-03T09:30:23.246Z,11.30
2022-10-03T09:33:14.469Z,10.87
2022-10-03T09:36:04.405Z,10.30
2022-10-03T09:39:02.626Z,12.20
2022-10-03T09:41:39.173Z,11.20
2022-10-03T09:44:18.014Z,11.30
2022-10-03T09:47:35.427Z,12.87
2022-10-03T09:50:28.724Z,11.73
2022-10-03T09:53:02.464Z,12.00
2022-10-03T09:55:52.171Z,13.20
2022-10-03T09:58:47.743Z,12.90
2022-10-03T10:01:26.178Z,12.90
2022-10-03T10:04:54.198Z,13.40
2022-10-03T10:07:49.229Z,11.93
2022-10-03T10:10:36.857Z,12.67
2022-10-03T10:13:12.403Z,12.63
2022-10-03T10:15:47.765Z,12.13
2022-10-03T10:18:17.424Z,11.90
2022-10-03T10:21:02.404Z,12.97
2022-10-03T10:23:38.190Z,12.67
2022-10-03T10:26:35.762Z,12.23
2022-10-03T10:29:17.546Z,11.93
2022-10-03T10:32:28.639Z,11.77
2022-10-03T10:35:10.234Z,11.40
2022-10-03T10:38:03.361Z,11.40
2022-10-03T10:40:48.240Z,12.83
2022-10-03T10:43:33.814Z,12.73
2022-10-03T10:46:18.744Z,11.90
2022-10-03T10:49:22.791Z,11.70
2022-10-03T10:52:19.195Z,12.47
2022-10-03T10:55:22.272Z,10.53
2022-10-03T10:58:11.803Z,12.03
2022-10-03T11:00:41.797Z,12.37
2022-10-03T11:03:33.384Z,12.57
2022-10-03T11:06:17.230Z,10.97
2022-10-03T11:09:11.762Z,12.20
2022-10-03T11:11:59.830Z,12.90
2022-10-03T11:15:19.861Z,11.97
2022-10-03T11:18:04.642Z,12.13
2022-10-03T11:21:10.389Z,12.40
2022-10-03T11:24:14.990Z,10.90
2022-10-03T11:27:03.468Z,11.43
2022-10-03T11:29:48.099Z,11.13
2022-10-03T11:32:45.192Z,12.50
2022-10-03T11:35:49.283Z,12.50
2022-10-03T11:38:24.701Z,11.70
2022-10-03T11:40:58.159Z,11.80
2022-10-03T11:43:53.044Z,11.20
2022-10-03T11:46:46.158Z,11.17
2022-10-03T11:49:40.813Z,10.73
2022-10-03T11:52:45.042Z,11.30
2022-10-03T11:55:39.766Z,11.10
2022-10-03T11:58:56.299Z,11.50
2022-10-03T12:01:53.993Z,11.10
2022-10-03T12:04:32.019Z,12.10
2022-10-03T12:07:24.864Z,11.67
2022-10-03T12:10:03.462Z,12.90
2022-10-03T12:12:55.046Z,11.97
2022-10-03T12:15:44.895Z,11.43
2022-10-03T12:18:41.011Z,11.70
2022-10-03T12:21:21.971Z,11.07
2022-10-03T12:24:20.757Z,11.83
2022-10-03T12:27:19.087Z,11.87
2022-10-03T12:29:58.786Z,11.83
2022-10-03T12:32:44.185Z,11.80
2022-10-03T12:35:41.639Z,11.57
2022-10-03T12:38:25.428Z,11.93
2022-10-03T12:41:07.442Z,12.30
2022-10-03T12:43:56.941Z,11.93
2022-10-03T12:46:43.760Z,13.73
2022-10-03T12:49:23.023Z,12.97
2022-10-03T12:51:53.167Z,12.77
2022-10-03T12:54:25.880Z,13.60
2022-10-03T12:57:39.130Z,13.70
2022-10-03T13:00:07.762Z,12.70
2022-10-03T13:02:41.151Z,11.60
2022-10-03T13:05:31.693Z,12.20
2022-10-03T13:08:06.897Z,11.33
2022-10-03T13:10:39.282Z,11.93
2022-10-03T13:13:33.692Z,11.77
2022-10-03T13:16:13.608Z,10.07
2022-10-03T13:19:06.602Z,11.30
2022-10-03T13:22:06.450Z,11.73
2022-10-03T13:24:50.490Z,10.83
2022-10-03T13:27:22.910Z,10.73
2022-10-03T13:30:25.125Z,9.67
2022-10-03T13:33:03.262Z,9.37
2022-10-03T13:35:58.323Z,8.50
2022-10-03T13:39:03.012Z,8.70
2022-10-03T13:42:16.006Z,7.93
2022-10-03T13:44:55.586Z,7.93
2022-10-03T13:47:38.992Z,8.03
2022-10-03T13:50:15.344Z,7.10
2022-10-03T13:52:57.982Z,6.10
2022-10-03T13:55:36.846Z,6.60
2022-10-03T13:58:32.713Z,6.17
2022-10-03T14:01:24.495Z,5.90
2022-10-03T14:04:25.871Z,6.07
2022-10-03T14:07:16.323Z,6.30
2022-10-03T14:10:13.076Z,6.90
2022-10-03T14:13:10.725Z,6.30
2022-10-03T14:15:58.381Z,5.60
2022-10-03T14:18:56.312Z,5.30
2022-10-03T14:21:47.919Z,5.43
2022-10-03T14:24:42.969Z,5.27
2022-10-03T14:27:37.058Z,4.57
2022-10-03T14:30:11.261Z,3.97
2022-10-03T14:32:54.224Z,4.40
2022-10-03T14:35:39.369Z,4.27
2022-10-03T14:38:20.371Z,4.10
2022-10-03T14:40:56.385Z,4.30
2022-10-03T14:43:30.525Z,4.27
2022-10-03T14:46:02.092Z,4.27
2022-10-03T14:48:36.500Z,3.93
2022-10-03T14:51:26.467Z,3.77
2022-10-03T14:54:05.302Z,4.30
2022-10-03T14:56:44.151Z,3.73
2022-10-03T14:59:21.561Z,3.40
2022-10-03T15:01:55.034Z,3.57
2022-10-03T15:04:30.027Z,3.70
2022-10-03T15:07:00.680Z,3.90
2022-10-03T15:09:40.104Z,4.00
2022-10-03T15:12:10.185Z,3.70
2022-10-03T15:14:43.070Z,4.03
2022-10-03T15:17:43.276Z,3.63
2022-10-03T15:20:12.529Z,3.43
2022-10-03T15:22:44.299Z,3.47
2022-10-03T15:25:30.843Z,3.70
2022-10-03T15:28:03.908Z,3.73
2022-10-03T15:30:39.338Z,3.50
2022-10-03T15:33:24.647Z,3.67
2022-10-03T15:35:59.410Z,3.63
2022-10-03T15:38:37.682Z,3.60
2022-10-03T15:41:18.914Z,3.47
2022-10-03T15:43:57.106Z,3.73
2022-10-03T15:46:54.917Z,3.63
2022-10-03T15:49:40.155Z,3.50
2022-10-03T15:52:18.519Z,3.47
2022-10-03T15:55:11.156Z,3.47
2022-10-03T15:57:44.861Z,4.13
2022-10-03T16:00:33.728Z,4.00
2022-10-03T16:03:24.234Z,3.77
2022-10-03T16:06:00.742Z,4.03
2022-10-03T16:08:31.167Z,3.77
2022-10-03T16:11:16.014Z,4.00
2022-10-03T16:13:47.838Z,3.80
2022-10-03T16:16:19.982Z,4.50
2022-10-03T16:18:52.087Z,4.50
2022-10-03T16:21:45.768Z,4.10
2022-10-03T16:24:40.538Z,5.80
2022-10-03T16:27:18.940Z,5.83
2022-10-03T16:29:57.969Z,5.43
2022-10-03T16:32:28.357Z,4.73
2022-10-03T16:35:01.134Z,4.57
2022-10-03T16:37:29.950Z,4.87
2022-10-03T16:40:05.887Z,4.60
2022-10-03T16:42:44.331Z,5.07
2022-10-03T16:45:41.648Z,5.47
2022-10-03T16:49:08.119Z,6.93
2022-10-03T16:51:43.060Z,6.23
2022-10-03T16:54:15.943Z,5.83
2022-10-03T16:56:48.090Z,5.27
2022-10-03T16:59:19.522Z,5.17
2022-10-03T17:01:51.620Z,5.03
2022-10-03T17:04:25.667Z,5.20
2022-10-03T17:06:57.270Z,4.67
2022-10-03T17:09:41.702Z,4.87
2022-10-03T17:12:17.558Z,4.70
2022-10-03T17:14:45.134Z,4.80
2022-10-03T17:17:33.219Z,4.50
2022-10-03T17:20:07.059Z,5.13
2022-10-03T17:22:47.495Z,5.20
2022-10-03T17:25:17.424Z,5.50
2022-10-03T17:27:50.886Z,5.17
2022-10-03T17:30:44.080Z,6.40
2022-10-03T17:33:28.626Z,5.90
2022-10-03T17:36:20.923Z,5.97
2022-10-03T17:39:02.392Z,5.70
2022-10-03T17:41:59.548Z,5.30
2022-10-03T17:44:33.917Z,6.53
2022-10-03T17:47:23.897Z,5.90
2022-10-03T17:50:06.672Z,5.67
2022-10-03T17:52:40.982Z,6.10
2022-10-03T17:55:16.619Z,5.57
2022-10-03T17:57:52.890Z,5.97
2022-10-03T18:00:55.749Z,6.10
2022-10-03T18:03:33.864Z,5.90
2022-10-03T18:06:25.846Z,6.03
2022-10-03T18:08:53.473Z,5.67
2022-10-03T18:11:23.945Z,6.27
2022-10-03T18:14:00.117Z,6.20
2022-10-03T18:16:37.502Z,6.07
2022-10-03T18:19:26.259Z,6.70
2022-10-03T18:22:21.112Z,6.27
2022-10-03T18:25:32.114Z,6.07
2022-10-03T18:28:13.424Z,6.73
2022-10-03T18:30:56.278Z,5.93
2022-10-03T18:33:46.639Z,6.13
2022-10-03T18:36:22.539Z,6.03
2022-10-03T18:38:52.613Z,5.80
2022-10-03T18:41:19.542Z,6.27
2022-10-03T18:43:58.752Z,6.37
2022-10-03T18:46:42.695Z,5.70
2022-10-03T18:49:33.411Z,5.70
2022-10-03T18:52:19.449Z,5.80
2022-10-03T18:55:15.056Z,5.97
2022-10-03T18:57:54.324Z,5.80
2022-10-03T19:00:26.667Z,5.90
2022-10-03T19:02:58.213Z,5.77
2022-10-03T19:05:46.210Z,10.03
2022-10-03T19:08:42.322Z,6.43
2022-10-03T19:11:17.786Z,5.50
2022-10-03T19:13:56.014Z,5.57
2022-10-03T19:16:40.082Z,5.47
2022-10-03T19:19:29.079Z,5.10
2022-10-03T19:22:01.071Z,5.30
2022-10-03T19:24:53.449Z,5.43
2022-10-03T19:27:24.005Z,5.13
2022-10-03T19:29:54.326Z,4.77
2022-10-03T19:32:48.655Z,5.00
2022-10-03T19:35:21.252Z,5.00
2022-10-03T19:37:51.936Z,5.17
2022-10-03T19:40:39.557Z,6.17
2022-10-03T19:43:18.083Z,5.20
2022-10-03T19:46:03.411Z,5.20
2022-10-03T19:48:33.466Z,5.23
2022-10-03T19:51:23.935Z,5.03
2022-10-03T19:53:54.725Z,5.17
2022-10-03T19:56:25.736Z,5.60
2022-10-03T19:59:04.787Z,5.37
2022-10-03T20:01:46.240Z,5.43
2022-10-03T20:04:16.793Z,4.97
2022-10-03T20:06:48.771Z,5.10
2022-10-03T20:09:27.508Z,5.10
2022-10-03T20:12:06.568Z,5.00
2022-10-03T20:14:40.675Z,5.13
2022-10-03T20:17:24.896Z,5.00
2022-10-03T20:20:04.072Z,4.90
2022-10-03T20:22:34.287Z,4.67
2022-10-03T20:25:08.651Z,4.50
2022-10-03T20:27:46.019Z,5.00
2022-10-03T20:30:33.683Z,5.07
2022-10-03T20:33:00.625Z,5.10
2022-10-03T20:35:31.066Z,4.50
2022-10-03T20:38:20.032Z,4.90
2022-10-03T20:40:56.944Z,4.87
2022-10-03T20:43:42.352Z,4.80
2022-10-03T20:46:47.679Z,5.20
2022-10-03T20:49:40.773Z,4.90
2022-10-03T20:52:16.137Z,4.73
2022-10-03T20:54:58.483Z,4.90
2022-10-03T20:57:47.971Z,5.23
2022-10-03T21:00:14.707Z,5.53
2022-10-03T21:02:59.426Z,5.13
2022-10-03T21:05:37.707Z,5.70
2022-10-03T21:08:41.372Z,5.10
2022-10-03T21:11:10.947Z,4.47
2022-10-03T21:13:54.843Z,4.70
2022-10-03T21:16:30.841Z,4.23
2022-10-03T21:19:11.874Z,4.87
2022-10-03T21:21:50.126Z,4.60
2022-10-03T21:24:58.486Z,4.10
2022-10-03T21:27:26.470Z,3.90
2022-10-03T21:30:31.244Z,3.87
2022-10-03T21:33:11.379Z,3.60
2022-10-03T21:35:41.716Z,3.33
2022-10-03T21:38:08.314Z,2.87
2022-10-03T21:40:56.225Z,2.50
2022-10-03T21:43:57.199Z,2.93
2022-10-03T21:46:23.885Z,2.60
2022-10-03T21:48:59.614Z,2.60
2022-10-03T21:52:00.650Z,2.67
2022-10-03T21:55:05.603Z,2.47
2022-10-03T21:57:52.703Z,2.30
2022-10-03T22:00:26.481Z,2.40
2022-10-03T22:03:26.982Z,2.30
2022-10-03T22:06:17.954Z,2.20
2022-10-03T22:08:49.683Z,2.40
2022-10-03T22:11:27.908Z,2.00
2022-10-03T22:14:09.253Z,1.87
2022-10-03T22:16:46.127Z,1.93
2022-10-03T22:19:32.530Z,2.10
2022-10-03T22:22:08.495Z,2.30
2022-10-03T22:24:46.326Z,2.13
2022-10-03T22:27:20.775Z,2.13
2022-10-03T22:30:12.476Z,1.80
2022-10-03T22:32:54.331Z,2.10
2022-10-03T22:35:40.726Z,1.90
2022-10-03T22:38:08.327Z,2.23
2022-10-03T22:40:42.213Z,1.80
2022-10-03T22:43:16.257Z,1.67
2022-10-03T22:45:47.072Z,1.80
2022-10-03T22:48:21.849Z,1.80
2022-10-03T22:50:48.907Z,1.80
2022-10-03T22:53:19.518Z,1.80
2022-10-03T22:55:51.257Z,1.73
2022-10-03T22:58:20.643Z,1.60
2022-10-03T23:00:53.254Z,1.80
2022-10-03T23:03:32.582Z,1.70
2022-10-03T23:06:41.012Z,1.63
2022-10-03T23:09:18.982Z,1.60
2022-10-03T23:11:52.479Z,1.27
2022-10-03T23:14:26.123Z,1.63
2022-10-03T23:16:59.539Z,1.60
2022-10-03T23:19:50.215Z,1.50
2022-10-03T23:22:25.055Z,1.50
2022-10-03T23:25:01.155Z,1.43
2022-10-03T23:27:56.093Z,1.50
2022-10-03T23:30:25.830Z,1.10
2022-10-03T23:32:56.382Z,1.30
2022-10-03T23:35:31.985Z,1.27
2022-10-03T23:38:03.282Z,1.40
2022-10-03T23:40:38.921Z,1.27
2022-10-03T23:43:30.029Z,1.33
2022-10-03T23:46:19.856Z,1.10
2022-10-03T23:48:59.345Z,1.30
2022-10-03T23:51:34.813Z,1.60
2022-10-03T23:54:08.415Z,1.20
2022-10-03T23:56:41.370Z,1.27
2022-10-03T23:59:16.099Z,1.13
